createdAt,value
2023-05-16T00:02:06.677Z,10.33
2023-05-16T00:04:34.696Z,7.63
2023-05-16T00:07:02.585Z,10.30
2023-05-16T00:09:30.602Z,7.47
2023-05-16T00:11:58.930Z,8.43
2023-05-16T00:14:27.298Z,7.83
2023-05-16T00:16:58.569Z,8.63
2023-05-16T00:19:27.821Z,8.60
2023-05-16T00:21:55.717Z,8.10
2023-05-16T00:24:23.624Z,7.67
2023-05-16T00:26:51.447Z,8.80
2023-05-16T00:29:19.384Z,15.63
2023-05-16T00:31:47.391Z,13.70
2023-05-16T00:34:16.742Z,18.60
2023-05-16T00:36:45.100Z,16.63
2023-05-16T00:39:13.060Z,17.67
2023-05-16T00:41:41.227Z,20.37
2023-05-16T00:44:09.471Z,19.03
2023-05-16T00:46:37.542Z,17.97
2023-05-16T00:49:06.067Z,23.13
2023-05-16T00:51:35.403Z,19.10
2023-05-16T00:54:04.027Z,19.63
2023-05-16T00:56:32.007Z,20.00
2023-05-16T00:59:00.596Z,19.57
2023-05-16T01:01:30.533Z,19.70
2023-05-16T01:03:58.866Z,20.63
2023-05-16T01:06:28.586Z,20.97
2023-05-16T01:08:57.945Z,19.90
2023-05-16T01:11:31.724Z,19.43
2023-05-16T01:14:13.243Z,20.20
2023-05-16T01:16:48.822Z,20.77
2023-05-16T01:19:44.413Z,20.93
2023-05-16T01:22:17.176Z,21.10
2023-05-16T01:25:05.380Z,23.87
2023-05-16T01:27:36.558Z,21.57
2023-05-16T01:30:16.040Z,24.37
2023-05-16T01:32:44.506Z,25.43
2023-05-16T01:35:15.306Z,23.20
2023-05-16T01:37:49.728Z,27.47
2023-05-16T01:40:23.934Z,25.87
2023-05-16T01:42:56.960Z,27.97
2023-05-16T01:45:27.964Z,29.00
2023-05-16T01:48:00.949Z,29.07
2023-05-16T01:50:33.317Z,28.10
2023-05-16T01:53:09.071Z,30.40
2023-05-16T01:55:44.898Z,31.77
2023-05-16T01:58:16.220Z,30.57
2023-05-16T02:00:44.972Z,29.93
2023-05-16T02:03:13.249Z,31.63
2023-05-16T02:05:41.383Z,34.97
2023-05-16T02:08:12.283Z,34.63
2023-05-16T02:10:41.355Z,31.50
2023-05-16T02:13:09.503Z,35.20
2023-05-16T02:15:39.193Z,38.17
2023-05-16T02:18:07.375Z,33.80
2023-05-16T02:20:35.486Z,37.73
2023-05-16T02:23:03.632Z,34.47
2023-05-16T02:25:33.612Z,34.90
2023-05-16T02:28:01.478Z,37.33
2023-05-16T02:30:29.422Z,39.73
2023-05-16T02:32:58.700Z,38.47
2023-05-16T02:35:26.914Z,40.67
2023-05-16T02:37:55.388Z,36.07
2023-05-16T02:40:25.754Z,38.63
2023-05-16T02:42:53.678Z,42.13
2023-05-16T02:45:21.546Z,41.77
2023-05-16T02:47:49.802Z,43.57
2023-05-16T02:50:21.326Z,43.13
2023-05-16T02:52:49.633Z,42.83
2023-05-16T02:55:22.388Z,40.63
2023-05-16T02:57:51.043Z,41.20
2023-05-16T03:00:19.725Z,41.33
2023-05-16T03:02:48.360Z,41.47
2023-05-16T03:05:17.037Z,42.40
2023-05-16T03:07:46.401Z,45.23
2023-05-16T03:10:14.463Z,42.83
2023-05-16T03:12:42.744Z,43.97
2023-05-16T03:15:11.427Z,43.30
2023-05-16T03:17:39.390Z,41.30
2023-05-16T03:20:09.115Z,45.10
2023-05-16T03:22:37.326Z,47.10
2023-05-16T03:25:07.902Z,44.37
2023-05-16T03:27:36.106Z,48.23
2023-05-16T03:30:04.050Z,48.87
2023-05-16T03:32:32.144Z,52.23
2023-05-16T03:35:00.070Z,50.30
2023-05-16T03:37:29.031Z,53.47
2023-05-16T03:39:57.074Z,56.20
2023-05-16T03:42:26.381Z,52.17
2023-05-16T03:44:54.428Z,54.40
2023-05-16T03:47:22.528Z,53.27
2023-05-16T03:49:50.561Z,58.50
2023-05-16T03:52:18.468Z,52.80
2023-05-16T03:54:47.328Z,58.20
2023-05-16T03:57:15.482Z,55.33
2023-05-16T03:59:44.880Z,58.67
2023-05-16T04:02:12.996Z,58.90
2023-05-16T04:04:40.873Z,56.50
2023-05-16T04:07:08.969Z,59.70
2023-05-16T04:09:37.101Z,61.27
2023-05-16T04:12:05.722Z,56.03
2023-05-16T04:14:34.005Z,56.83
2023-05-16T04:17:03.747Z,59.93
2023-05-16T04:19:31.704Z,57.87
2023-05-16T04:21:59.611Z,54.73
2023-05-16T04:24:28.981Z,57.93
2023-05-16T04:26:56.985Z,57.70
2023-05-16T04:29:25.129Z,54.13
2023-05-16T04:31:53.267Z,61.13
2023-05-16T04:34:23.083Z,59.43
2023-05-16T04:36:51.589Z,54.03
2023-05-16T04:39:19.433Z,54.23
2023-05-16T04:41:47.971Z,54.43
2023-05-16T04:44:15.897Z,57.03
2023-05-16T04:46:43.898Z,53.87
2023-05-16T04:49:12.867Z,57.63
2023-05-16T04:51:42.250Z,56.17
2023-05-16T04:54:10.740Z,55.27
2023-05-16T04:56:38.643Z,58.10
2023-05-16T04:59:06.712Z,54.17
2023-05-16T05:01:34.835Z,55.60
2023-05-16T05:04:02.788Z,55.27
2023-05-16T05:06:31.447Z,57.83
2023-05-16T05:09:00.881Z,52.17
2023-05-16T05:11:28.858Z,49.57
2023-05-16T05:13:56.720Z,52.63
2023-05-16T05:16:24.615Z,51.57
2023-05-16T05:18:52.806Z,49.27
2023-05-16T05:21:22.010Z,52.87
2023-05-16T05:23:50.650Z,53.73
2023-05-16T05:26:22.103Z,53.90
2023-05-16T05:29:01.189Z,49.03
2023-05-16T05:31:33.640Z,51.10
2023-05-16T05:34:01.777Z,50.93
2023-05-16T05:36:29.617Z,48.83
2023-05-16T05:38:57.722Z,56.47
2023-05-16T05:41:27.286Z,47.37
2023-05-16T05:43:55.132Z,48.40
2023-05-16T05:46:23.439Z,47.27
2023-05-16T05:48:51.656Z,49.20
2023-05-16T05:51:20.143Z,49.60
2023-05-16T05:53:48.159Z,47.43
2023-05-16T05:56:16.407Z,45.33
2023-05-16T05:58:46.560Z,47.60
2023-05-16T06:01:14.581Z,48.73
2023-05-16T06:03:42.823Z,51.60
2023-05-16T06:06:11.011Z,46.03
2023-05-16T06:08:38.892Z,49.70
2023-05-16T06:11:06.865Z,47.67
2023-05-16T06:13:34.783Z,46.57
2023-05-16T06:16:04.398Z,43.90
2023-05-16T06:18:32.303Z,43.03
2023-05-16T06:21:00.199Z,49.70
2023-05-16T06:23:28.085Z,48.73
2023-05-16T06:25:56.060Z,43.27
2023-05-16T06:28:25.028Z,40.80
2023-05-16T06:30:52.942Z,44.47
2023-05-16T06:33:22.523Z,44.17
2023-05-16T06:35:51.084Z,39.37
2023-05-16T06:38:19.558Z,38.23
2023-05-16T06:40:47.651Z,38.30
2023-05-16T06:43:15.633Z,38.97
2023-05-16T06:45:43.611Z,38.87
2023-05-16T06:48:11.657Z,39.43
2023-05-16T06:50:41.133Z,37.63
2023-05-16T06:53:09.144Z,38.47
2023-05-16T06:55:37.074Z,34.60
2023-05-16T06:58:05.034Z,34.40
2023-05-16T07:00:33.081Z,31.53
2023-05-16T07:03:01.109Z,30.50
2023-05-16T07:05:29.336Z,28.23
2023-05-16T07:07:58.791Z,29.03
2023-05-16T07:10:27.354Z,30.10
2023-05-16T07:12:55.601Z,25.83
2023-05-16T07:15:23.622Z,25.77
2023-05-16T07:17:51.779Z,24.70
2023-05-16T07:20:20.966Z,20.40
2023-05-16T07:22:49.099Z,20.03
2023-05-16T07:25:19.491Z,17.43
2023-05-16T07:27:47.519Z,15.67
2023-05-16T07:30:15.919Z,14.10
2023-05-16T07:32:44.333Z,15.60
2023-05-16T07:35:13.209Z,14.30
2023-05-16T07:37:42.602Z,15.57
2023-05-16T07:40:11.381Z,10.70
2023-05-16T07:42:40.733Z,12.30
2023-05-16T07:45:09.235Z,28.40
2023-05-16T07:47:37.260Z,13.17
2023-05-16T07:50:05.871Z,12.97
2023-05-16T07:52:33.786Z,11.43
2023-05-16T07:55:03.929Z,10.93
2023-05-16T07:57:31.909Z,10.90
2023-05-16T08:00:01.574Z,12.10
2023-05-16T08:02:40.041Z,13.13
2023-05-16T08:05:09.446Z,11.50
2023-05-16T08:07:37.625Z,11.80
2023-05-16T08:10:06.412Z,12.30
2023-05-16T08:12:34.398Z,12.13
2023-05-16T08:15:04.001Z,13.63
2023-05-16T08:17:31.994Z,14.90
2023-05-16T08:20:01.810Z,18.20
2023-05-16T08:22:29.747Z,13.50
2023-05-16T08:24:58.284Z,14.50
2023-05-16T08:27:26.254Z,15.23
2023-05-16T08:29:54.273Z,14.43
2023-05-16T08:32:24.222Z,16.83
2023-05-16T08:34:54.512Z,15.03
2023-05-16T08:37:22.467Z,15.40
2023-05-16T08:39:50.464Z,17.27
2023-05-16T08:42:18.429Z,17.87
2023-05-16T08:44:46.557Z,16.97
2023-05-16T08:47:19.114Z,17.37
2023-05-16T08:49:52.178Z,16.93
2023-05-16T08:52:21.828Z,18.43
2023-05-16T08:55:02.058Z,16.43
2023-05-16T08:57:38.375Z,16.87
2023-05-16T09:00:12.679Z,18.10
2023-05-16T09:02:41.597Z,20.67
2023-05-16T09:05:14.061Z,18.93
2023-05-16T09:07:42.927Z,20.57
2023-05-16T09:10:12.038Z,19.47
2023-05-16T09:12:41.077Z,23.00
2023-05-16T09:15:11.877Z,19.33
2023-05-16T09:17:44.591Z,22.80
2023-05-16T09:20:16.497Z,21.47
2023-05-16T09:22:52.952Z,21.67
2023-05-16T09:25:30.371Z,23.47
2023-05-16T09:28:01.850Z,23.93
2023-05-16T09:30:32.581Z,23.93
2023-05-16T09:33:01.101Z,23.70
2023-05-16T09:35:43.751Z,22.53
2023-05-16T09:38:16.076Z,21.93
2023-05-16T09:40:44.226Z,26.03
2023-05-16T09:43:16.199Z,26.70
2023-05-16T09:45:49.124Z,24.67
2023-05-16T09:48:18.072Z,24.10
2023-05-16T09:50:53.531Z,24.00
2023-05-16T09:53:28.419Z,25.30
2023-05-16T09:56:03.893Z,25.53
2023-05-16T09:58:32.687Z,20.63
2023-05-16T10:01:00.785Z,23.20
2023-05-16T10:03:29.378Z,20.27
2023-05-16T10:05:59.209Z,22.33
2023-05-16T10:08:27.733Z,22.50
2023-05-16T10:10:57.535Z,22.47
2023-05-16T10:13:30.825Z,22.80
2023-05-16T10:16:00.821Z,20.97
2023-05-16T10:18:31.743Z,23.47
2023-05-16T10:21:07.835Z,19.37
2023-05-16T10:23:39.266Z,21.20
2023-05-16T10:26:07.613Z,20.63
2023-05-16T10:28:36.549Z,18.83
2023-05-16T10:31:05.327Z,17.80
2023-05-16T10:33:33.242Z,18.27
2023-05-16T10:36:03.702Z,21.93
2023-05-16T10:38:32.278Z,22.17
2023-05-16T10:41:00.268Z,19.83
2023-05-16T10:43:30.351Z,20.37
2023-05-16T10:45:59.518Z,19.63
2023-05-16T10:48:31.531Z,22.23
2023-05-16T10:50:59.799Z,20.17
2023-05-16T10:53:33.735Z,21.10
2023-05-16T10:56:11.034Z,20.63
2023-05-16T10:58:44.133Z,18.17
2023-05-16T11:01:25.966Z,15.03
2023-05-16T11:04:11.530Z,17.03
2023-05-16T11:06:53.215Z,17.67
2023-05-16T11:09:28.189Z,17.30
2023-05-16T11:11:59.116Z,17.23
2023-05-16T11:14:29.119Z,18.77
2023-05-16T11:17:03.572Z,16.00
2023-05-16T11:19:34.729Z,15.77
2023-05-16T11:22:16.613Z,13.30
2023-05-16T11:24:57.003Z,14.03
2023-05-16T11:27:27.872Z,12.93
2023-05-16T11:30:02.000Z,14.47
2023-05-16T11:32:32.238Z,14.50
2023-05-16T11:35:00.695Z,9.73
2023-05-16T11:37:29.386Z,8.10
2023-05-16T11:40:02.049Z,9.40
2023-05-16T11:42:33.830Z,9.47
2023-05-16T11:45:09.009Z,9.70
2023-05-16T11:47:39.405Z,8.50
2023-05-16T11:50:10.060Z,8.47
2023-05-16T11:52:38.750Z,11.77
2023-05-16T11:55:11.433Z,10.40
2023-05-16T11:57:39.897Z,8.93
2023-05-16T12:00:16.194Z,8.60
2023-05-16T12:02:44.894Z,10.20
2023-05-16T12:05:13.305Z,8.87
2023-05-16T12:07:41.871Z,9.93
2023-05-16T12:10:12.652Z,8.60
2023-05-16T12:12:42.118Z,8.43
2023-05-16T12:15:11.041Z,8.03
2023-05-16T12:17:41.191Z,11.83
2023-05-16T12:20:14.262Z,7.67
2023-05-16T12:22:42.762Z,8.20
2023-05-16T12:25:26.735Z,8.90
2023-05-16T12:27:55.880Z,6.43
2023-05-16T12:30:25.671Z,7.13
2023-05-16T12:32:56.493Z,5.60
2023-05-16T12:35:24.843Z,7.03
2023-05-16T12:37:53.754Z,5.33
2023-05-16T12:40:21.997Z,5.10
2023-05-16T12:42:52.728Z,5.13
2023-05-16T12:45:21.096Z,4.63
2023-05-16T12:47:49.120Z,5.57
2023-05-16T12:50:18.408Z,4.10
2023-05-16T12:52:51.535Z,4.80
2023-05-16T12:55:20.346Z,4.50
2023-05-16T12:57:49.837Z,5.10
2023-05-16T13:00:21.191Z,4.97
2023-05-16T13:02:49.669Z,5.60
2023-05-16T13:05:18.431Z,6.00
2023-05-16T13:07:46.357Z,5.03
2023-05-16T13:10:14.412Z,4.27
2023-05-16T13:12:42.971Z,3.80
2023-05-16T13:15:12.792Z,3.67
2023-05-16T13:17:44.701Z,3.30
2023-05-16T13:20:14.765Z,3.93
2023-05-16T13:22:44.032Z,4.27
2023-05-16T13:25:12.797Z,5.10
2023-05-16T13:27:40.832Z,4.20
2023-05-16T13:30:09.790Z,5.37
2023-05-16T13:32:38.159Z,2.90
2023-05-16T13:35:08.394Z,2.60
2023-05-16T13:37:37.542Z,2.83
2023-05-16T13:40:10.152Z,3.27
2023-05-16T13:42:38.694Z,3.30
2023-05-16T13:45:07.935Z,5.73
2023-05-16T13:47:36.682Z,4.30
2023-05-16T13:50:09.156Z,3.23
2023-05-16T13:52:39.217Z,4.03
2023-05-16T13:55:09.659Z,4.37
2023-05-16T13:57:38.145Z,4.90
2023-05-16T14:00:35.287Z,3.27
2023-05-16T14:03:00.526Z,2.63
2023-05-16T14:05:28.799Z,3.57
2023-05-16T14:07:58.168Z,2.60
2023-05-16T14:10:26.836Z,2.60
2023-05-16T14:12:55.008Z,3.97
2023-05-16T14:15:23.001Z,4.00
2023-05-16T14:17:51.031Z,4.90
2023-05-16T14:20:19.263Z,3.70
2023-05-16T14:22:47.648Z,3.17
2023-05-16T14:25:17.161Z,2.57
2023-05-16T14:27:45.096Z,2.87
2023-05-16T14:30:14.148Z,2.60
2023-05-16T14:32:42.302Z,4.23
2023-05-16T14:35:11.141Z,3.27
2023-05-16T14:37:39.073Z,3.77
2023-05-16T14:40:09.059Z,2.00
2023-05-16T14:42:39.680Z,4.23
2023-05-16T14:45:08.597Z,2.67
2023-05-16T14:47:36.589Z,2.40
2023-05-16T14:50:08.152Z,4.83
2023-05-16T14:52:36.364Z,2.67
2023-05-16T14:55:04.399Z,2.10
2023-05-16T14:57:32.905Z,3.30
2023-05-16T15:00:02.350Z,2.47
2023-05-16T15:02:30.564Z,3.80
2023-05-16T15:04:58.567Z,2.80
2023-05-16T15:07:26.640Z,4.07
2023-05-16T15:09:54.606Z,4.00
2023-05-16T15:12:22.702Z,3.07
2023-05-16T15:14:50.587Z,4.60
2023-05-16T15:17:19.856Z,4.93
2023-05-16T15:19:49.031Z,3.67
2023-05-16T15:22:16.958Z,2.47
2023-05-16T15:24:44.990Z,4.47
2023-05-16T15:27:13.016Z,2.97
2023-05-16T15:29:41.004Z,5.87
2023-05-16T15:32:09.965Z,5.00
2023-05-16T15:34:39.338Z,2.53
2023-05-16T15:37:07.447Z,4.37
2023-05-16T15:39:36.090Z,5.30
2023-05-16T15:44:36.995Z,3.87
2023-05-16T15:47:05.303Z,3.33
2023-05-16T15:49:33.220Z,4.33
2023-05-16T15:52:02.736Z,5.73
2023-05-16T15:54:30.769Z,6.33
2023-05-16T15:56:59.078Z,4.90
2023-05-16T15:59:27.030Z,4.37
2023-05-16T16:01:55.096Z,4.97
2023-05-16T16:04:23.902Z,5.83
2023-05-16T16:06:51.930Z,6.77
2023-05-16T16:09:21.253Z,5.90
2023-05-16T16:11:49.700Z,9.53
2023-05-16T16:14:17.663Z,3.93
2023-05-16T16:16:45.619Z,5.00
2023-05-16T16:19:13.606Z,3.63
2023-05-16T16:21:41.821Z,4.93
2023-05-16T16:24:09.868Z,5.13
2023-05-16T16:26:39.175Z,4.53
2023-05-16T16:29:07.300Z,4.30
2023-05-16T16:31:35.549Z,4.27
2023-05-16T16:34:03.650Z,4.30
2023-05-16T16:36:32.292Z,6.67
2023-05-16T16:39:00.500Z,3.43
2023-05-16T16:41:28.362Z,5.83
2023-05-16T16:43:57.664Z,3.23
2023-05-16T16:46:25.671Z,3.37
2023-05-16T16:48:54.690Z,4.53
2023-05-16T16:51:22.657Z,4.50
2023-05-16T16:53:50.617Z,3.40
2023-05-16T16:56:18.564Z,3.63
2023-05-16T16:58:46.690Z,5.70
2023-05-16T17:01:16.061Z,5.90
2023-05-16T17:03:44.037Z,6.40
2023-05-16T17:06:12.047Z,5.23
2023-05-16T17:08:39.984Z,8.80
2023-05-16T17:11:08.264Z,5.80
2023-05-16T17:13:37.552Z,3.47
2023-05-16T17:16:06.491Z,4.03
2023-05-16T17:18:37.040Z,5.93
2023-05-16T17:21:05.382Z,2.43
2023-05-16T17:23:33.702Z,4.33
2023-05-16T17:26:01.908Z,4.63
2023-05-16T17:28:31.363Z,4.13
2023-05-16T17:31:00.961Z,4.33
2023-05-16T17:33:29.207Z,6.00
2023-05-16T17:35:58.532Z,5.33
2023-05-16T17:38:26.492Z,4.97
2023-05-16T17:40:54.581Z,4.33
2023-05-16T17:43:22.752Z,3.60
2023-05-16T17:45:50.876Z,3.43
2023-05-16T17:48:19.097Z,5.70
2023-05-16T17:50:47.092Z,3.77
2023-05-16T17:53:16.682Z,3.10
2023-05-16T17:55:44.652Z,5.47
2023-05-16T17:58:12.822Z,3.47
2023-05-16T18:00:40.840Z,4.93
2023-05-16T18:03:09.458Z,6.57
2023-05-16T18:05:37.591Z,4.00
2023-05-16T18:08:08.016Z,4.57
2023-05-16T18:10:51.118Z,4.37
2023-05-16T18:13:20.674Z,4.83
2023-05-16T18:15:48.611Z,4.87
2023-05-16T18:18:17.396Z,3.90
2023-05-16T18:20:46.245Z,3.57
2023-05-16T18:23:14.129Z,6.07
2023-05-16T18:25:43.404Z,6.33
2023-05-16T18:28:11.359Z,6.60
2023-05-16T18:30:39.389Z,5.27
2023-05-16T18:33:07.458Z,3.30
2023-05-16T18:35:35.365Z,4.80
2023-05-16T18:38:04.033Z,6.80
2023-05-16T18:40:32.350Z,6.13
2023-05-16T18:43:01.872Z,4.03
2023-05-16T18:45:30.325Z,4.97
2023-05-16T18:47:58.435Z,3.70
2023-05-16T18:50:27.662Z,3.13
2023-05-16T18:52:57.439Z,3.57
2023-05-16T18:55:25.758Z,5.67
2023-05-16T18:57:54.064Z,3.50
2023-05-16T19:00:23.507Z,4.63
2023-05-16T19:02:51.755Z,4.67
2023-05-16T19:05:20.055Z,3.37
2023-05-16T19:07:48.238Z,5.63
2023-05-16T19:10:16.134Z,5.90
2023-05-16T19:12:46.873Z,4.57
2023-05-16T19:15:14.930Z,5.33
2023-05-16T19:17:44.384Z,4.10
2023-05-16T19:20:12.627Z,3.60
2023-05-16T19:22:40.543Z,2.20
2023-05-16T19:25:09.226Z,8.30
2023-05-16T19:27:37.083Z,5.07
2023-05-16T19:30:05.856Z,3.17
2023-05-16T19:32:34.036Z,4.13
2023-05-16T19:35:04.135Z,2.47
2023-05-16T19:37:32.061Z,5.53
2023-05-16T19:39:59.917Z,4.17
2023-05-16T19:42:28.074Z,4.70
2023-05-16T19:44:56.031Z,4.13
2023-05-16T19:47:24.136Z,3.60
2023-05-16T19:49:52.025Z,3.93
2023-05-16T19:52:21.324Z,8.30
2023-05-16T19:54:49.381Z,3.73
2023-05-16T19:57:17.294Z,5.23
2023-05-16T19:59:45.185Z,3.87
2023-05-16T20:02:13.075Z,5.00
2023-05-16T20:04:41.016Z,4.43
2023-05-16T20:07:09.304Z,3.10
2023-05-16T20:09:38.637Z,4.90
2023-05-16T20:12:08.550Z,2.97
2023-05-16T20:14:36.556Z,3.87
2023-05-16T20:17:05.147Z,6.90
2023-05-16T20:19:33.249Z,3.73
2023-05-16T20:22:01.410Z,4.33
2023-05-16T20:24:29.368Z,4.83
2023-05-16T20:26:58.687Z,5.07
2023-05-16T20:29:26.576Z,3.23
2023-05-16T20:31:54.564Z,4.07
2023-05-16T20:34:22.451Z,4.97
2023-05-16T20:36:50.352Z,2.57
2023-05-16T20:39:18.225Z,3.27
2023-05-16T20:41:46.139Z,3.60
2023-05-16T20:44:15.569Z,2.70
2023-05-16T20:46:43.617Z,4.10
2023-05-16T20:49:11.524Z,2.10
2023-05-16T20:51:39.515Z,4.00
2023-05-16T20:54:07.743Z,5.30
2023-05-16T20:56:35.707Z,2.33
2023-05-16T20:59:03.841Z,4.00
2023-05-16T21:01:33.350Z,2.40
2023-05-16T21:04:01.590Z,6.17
2023-05-16T21:06:29.611Z,5.40
2023-05-16T21:08:57.587Z,4.80
2023-05-16T21:11:27.461Z,4.60
2023-05-16T21:13:55.552Z,5.43
2023-05-16T21:16:23.448Z,4.70
2023-05-16T21:18:52.841Z,4.47
2023-05-16T21:21:21.080Z,6.83
2023-05-16T21:23:49.090Z,3.77
2023-05-16T21:26:17.076Z,5.13
2023-05-16T21:28:54.414Z,2.53
2023-05-16T21:31:23.708Z,7.70
2023-05-16T21:33:53.230Z,7.57
2023-05-16T21:36:21.396Z,3.57
2023-05-16T21:38:49.475Z,4.40
2023-05-16T21:41:18.141Z,3.87
2023-05-16T21:43:46.180Z,4.80
2023-05-16T21:46:14.167Z,3.63
2023-05-16T21:48:42.247Z,3.30
2023-05-16T21:51:11.853Z,2.73
2023-05-16T21:53:39.816Z,3.60
2023-05-16T21:56:07.971Z,3.47
2023-05-16T21:58:35.891Z,3.63
2023-05-16T22:01:03.803Z,4.47
2023-05-16T22:03:31.973Z,3.80
2023-05-16T22:05:59.989Z,2.97
2023-05-16T22:08:29.201Z,2.43
2023-05-16T22:10:57.220Z,3.00
2023-05-16T22:13:25.185Z,6.10
2023-05-16T22:16:03.861Z,2.57
2023-05-16T22:18:33.438Z,5.17
2023-05-16T22:21:01.804Z,2.93
2023-05-16T22:23:31.225Z,3.30
2023-05-16T22:25:59.219Z,3.47
2023-05-16T22:28:27.362Z,3.47
2023-05-16T22:30:55.496Z,3.23
2023-05-16T22:33:24.092Z,3.70
2023-05-16T22:35:52.270Z,5.90
2023-05-16T22:38:20.200Z,9.53
2023-05-16T22:40:49.547Z,2.60
2023-05-16T22:43:17.513Z,5.27
2023-05-16T22:45:45.508Z,3.43
2023-05-16T22:48:13.465Z,6.17
2023-05-16T22:50:41.516Z,3.30
2023-05-16T22:53:09.402Z,3.13
2023-05-16T22:55:37.320Z,3.03
2023-05-16T22:58:06.577Z,1.77
2023-05-16T23:00:34.537Z,4.10
2023-05-16T23:03:02.512Z,4.27
2023-05-16T23:05:30.721Z,4.43
2023-05-16T23:07:58.754Z,2.93
2023-05-16T23:10:26.756Z,3.13
2023-05-16T23:12:54.658Z,3.40
2023-05-16T23:15:24.485Z,3.97
2023-05-16T23:17:52.591Z,4.73
2023-05-16T23:20:20.685Z,3.53
2023-05-16T23:22:48.689Z,6.33
2023-05-16T23:25:16.783Z,5.93
2023-05-16T23:27:44.752Z,1.87
2023-05-16T23:30:13.272Z,2.47
2023-05-16T23:32:42.718Z,3.37
2023-05-16T23:35:10.898Z,2.90
2023-05-16T23:37:38.770Z,4.07
2023-05-16T23:40:08.095Z,3.57
2023-05-16T23:42:36.726Z,5.23
2023-05-16T23:45:05.122Z,3.07
2023-05-16T23:47:33.092Z,6.17
2023-05-16T23:50:02.408Z,4.03
2023-05-16T23:52:30.436Z,4.97
2023-05-16T23:54:58.388Z,2.07
2023-05-16T23:57:26.324Z,2.40
2023-05-16T23:59:54.250Z,1.47
